createdAt,value
2023-03-28T07:29:49.219Z,87.50
2023-03-28T07:39:50.945Z,87.40
2023-03-28T07:49:52.633Z,99.90
2023-03-28T07:59:56.072Z,99.90
2023-03-28T08:09:59.031Z,99.90
2023-03-28T08:30:04.073Z,99.90
2023-03-28T08:40:10.290Z,99.90
2023-03-28T08:54:27.294Z,73.60
2023-03-28T09:04:34.901Z,71.80
2023-03-28T09:14:50.109Z,69.00
2023-03-28T09:25:21.888Z,67.70
2023-03-28T09:35:25.206Z,65.40
2023-03-28T09:45:36.149Z,58.60
2023-03-28T09:55:37.918Z,55.70
2023-03-28T10:05:40.880Z,55.40
2023-03-28T10:15:46.995Z,52.90
2023-03-28T10:25:52.845Z,52.80
2023-03-28T10:36:01.262Z,51.70
2023-03-28T10:46:14.953Z,53.00
2023-03-28T10:56:41.277Z,65.10
2023-03-28T11:07:01.759Z,50.90
2023-03-28T11:17:24.806Z,50.40
2023-03-28T11:27:39.412Z,50.90
2023-03-28T11:38:12.897Z,51.10
2023-03-28T11:48:46.806Z,49.80
2023-03-28T11:58:53.023Z,49.40
2023-03-28T12:08:57.919Z,49.10
2023-03-28T12:19:02.645Z,47.70
2023-03-28T12:29:17.385Z,46.50
2023-03-28T12:39:43.508Z,46.10
2023-03-28T12:50:04.936Z,45.70
2023-03-28T13:00:25.811Z,45.60
2023-03-28T13:10:39.465Z,45.30
2023-03-28T13:20:45.985Z,42.30
2023-03-28T13:31:03.298Z,42.20
2023-03-28T13:41:09.142Z,42.00
2023-03-28T13:51:16.876Z,41.40
2023-03-28T14:01:27.259Z,41.30
2023-03-28T14:11:36.275Z,40.50
2023-03-28T14:21:38.013Z,38.60
2023-03-28T14:31:46.048Z,36.90
2023-03-28T14:41:47.869Z,35.90
2023-03-28T14:51:58.172Z,36.20
2023-03-28T15:02:02.201Z,36.00
2023-03-28T15:12:07.861Z,37.40
2023-03-28T15:22:13.409Z,38.10
2023-03-28T15:32:17.841Z,37.30
2023-03-28T15:42:19.488Z,37.00
2023-03-28T15:52:22.906Z,34.80
2023-03-28T16:42:33.303Z,38.60
2023-03-28T16:52:41.668Z,39.70
2023-03-28T17:02:47.594Z,40.40
2023-03-28T17:12:49.454Z,41.00
2023-03-28T17:28:14.313Z,41.60
2023-03-28T17:38:15.973Z,42.10
2023-03-28T18:01:47.254Z,43.90
2023-03-28T18:11:48.911Z,44.60
2023-03-28T18:21:50.535Z,46.40
2023-03-28T18:31:52.298Z,47.20
2023-03-28T18:41:53.999Z,47.70
2023-03-28T19:02:06.365Z,48.40
2023-03-28T19:12:08.234Z,48.80
2023-03-28T19:22:10.752Z,50.80
2023-03-28T19:32:12.386Z,50.80
2023-03-28T19:42:17.937Z,50.80
2023-03-28T19:52:19.607Z,51.20
2023-03-28T20:02:21.266Z,51.80
2023-03-28T20:12:22.990Z,52.30
2023-03-28T20:22:25.637Z,54.20
2023-03-28T20:32:27.311Z,54.20
2023-03-28T20:42:30.115Z,54.20
2023-03-28T20:52:38.785Z,54.00
2023-03-28T21:02:41.020Z,54.10
2023-03-28T21:12:43.777Z,54.40
2023-03-28T21:22:45.704Z,54.60
2023-03-28T21:32:47.771Z,54.90
2023-03-28T21:45:48.385Z,55.40
2023-03-28T21:55:51.061Z,55.80
2023-03-28T22:05:54.051Z,56.60
2023-03-28T22:15:59.791Z,57.10
2023-03-28T22:26:03.486Z,57.60
2023-03-28T22:46:08.389Z,58.70
2023-03-28T22:56:10.265Z,58.80
2023-03-28T23:06:13.600Z,58.80
2023-03-28T23:16:15.310Z,59.10
2023-03-28T23:26:17.776Z,59.60
2023-03-28T23:36:20.946Z,59.80
2023-03-28T23:46:22.803Z,60.10
2023-03-28T23:56:25.224Z,60.10
